Hauptseite
METAR-TAF:

METAR-TAF

Flughäfen :

Flughafen Salzburg

Salzburg, Österreich

Breite: 47-48N, Länge: 013-00E, Höhe: 430 m

Beobachtung

Neuester Wetterbericht von vor 42 Minuten, um 06:20 UTC
Wind 11 kt aus Süd/Südost
Temperatur 1°C
Luftfeuchtigkeit 59%
Luftdruck 1023 hPa
Sichtweite 10 km oder mehr
keine Wolken unter 1500 m und keine Kumulonimbus oder Gewitterwolken

METAR: LOWS 180620Z 15011KT CAVOK 01/M06 Q1023 NOSIG

Zeit: 08:02 (07:02 UTC)

Prognose

Neuester Wetterbericht von vor 1 Stunde und 47 Minuten, um 05:15 UTC
Gültige Prognose vom 18 um 06 UTC bis 19 um 06 UTC
Wind 7 kt aus Süd/Südost
Sichtweite 10 km oder mehr
keine Wolken unter 1500 m und keine Kumulonimbus oder Gewitterwolken
Zeitweise
vom 18 um 12 UTC bis 18 um 16 UTC
Wind 6 kt aus Nord/Nordwest

TAF: LOWS 180515Z 1806/1906 15007KT CAVOK TX14/1814Z TNM02/1902Z TEMPO 1812/1816 33006KT

Wetterbeobachtungen und Prognosen von mehr als 4000 Flughäfen (METAR und TAF Bericht).

Die verfügbaren Stationen werden durch gelbe und rote Markierungen auf der Karte dargestellt.

Führen Sie die Maus auf sie, um den Namen der Station zu sehen.

Darauf klicken, um die Beobachtung von Wetterbeobachtungen und Prognosen zu sehen.

Um die Karte zu ändern : klicken Sie auf den grünen Tasten mit einem schwarzen Kreuz Zum Vergrößern, auf den grünen Button mit einem Gedankenstrich zu verkleinern, oder auf die grünen Pfeile für benachbarte Karten.


METAR-TAF: